createdAt,value
2022-12-06T00:01:34.911Z,70.87
2022-12-06T00:04:06.900Z,70.69
2022-12-06T00:06:39.411Z,70.45
2022-12-06T00:09:08.963Z,70.31
2022-12-06T00:11:37.655Z,70.23
2022-12-06T00:14:07.235Z,70.82
2022-12-06T00:16:35.936Z,70.46
2022-12-06T00:19:05.357Z,70.55
2022-12-06T00:21:36.675Z,70.64
2022-12-06T00:24:13.909Z,70.39
2022-12-06T00:26:44.527Z,70.58
2022-12-06T00:29:15.369Z,71.07
2022-12-06T00:31:45.882Z,70.98
2022-12-06T00:34:14.281Z,70.71
2022-12-06T00:36:42.971Z,70.49
2022-12-06T00:39:14.401Z,70.51
2022-12-06T00:41:43.523Z,70.85
2022-12-06T00:44:12.523Z,71.46
2022-12-06T00:46:41.313Z,71.22
2022-12-06T00:49:10.093Z,70.58
2022-12-06T00:51:39.116Z,71.26
2022-12-06T00:54:08.922Z,71.41
2022-12-06T00:56:37.146Z,70.91
2022-12-06T00:59:06.207Z,70.63
2022-12-06T01:01:35.428Z,71.35
2022-12-06T01:04:06.065Z,71.58
2022-12-06T01:06:35.839Z,71.13
2022-12-06T01:09:07.376Z,71.19
2022-12-06T01:11:35.786Z,71.21
2022-12-06T01:14:03.963Z,71.03
2022-12-06T01:16:32.425Z,71.15
2022-12-06T01:19:03.959Z,71.23
2022-12-06T01:21:31.979Z,71.64
2022-12-06T01:24:00.163Z,71.84
2022-12-06T01:26:33.468Z,71.90
2022-12-06T01:29:02.571Z,71.97
2022-12-06T01:31:37.542Z,71.00
2022-12-06T01:34:15.914Z,70.63
2022-12-06T01:36:44.687Z,70.62
2022-12-06T01:39:12.873Z,70.31
2022-12-06T01:41:41.150Z,69.67
2022-12-06T01:44:41.458Z,69.98
2022-12-06T01:47:14.013Z,70.50
2022-12-06T01:49:46.924Z,70.87
2022-12-06T01:52:16.536Z,70.96
2022-12-06T01:54:45.329Z,70.89
2022-12-06T01:57:16.028Z,70.87
2022-12-06T01:59:45.364Z,70.56
2022-12-06T02:02:13.901Z,70.83
2022-12-06T02:04:43.160Z,70.85
2022-12-06T02:07:12.666Z,70.49
2022-12-06T02:09:41.662Z,70.87
2022-12-06T02:12:16.598Z,71.07
2022-12-06T02:14:48.974Z,71.07
2022-12-06T02:17:49.076Z,71.04
2022-12-06T02:20:33.261Z,71.51
2022-12-06T02:23:07.383Z,72.01
2022-12-06T02:26:13.091Z,72.02
2022-12-06T02:29:01.713Z,71.88
2022-12-06T02:31:49.333Z,72.24
2022-12-06T02:34:46.623Z,71.70
2022-12-06T02:37:23.256Z,72.26
2022-12-06T02:39:51.524Z,72.60
2022-12-06T02:42:25.139Z,72.26
2022-12-06T02:45:00.480Z,72.04
2022-12-06T02:47:34.599Z,72.52
2022-12-06T02:50:08.821Z,72.90
2022-12-06T02:52:41.739Z,73.18
2022-12-06T02:55:12.111Z,73.47
2022-12-06T02:57:40.190Z,73.48
2022-12-06T03:00:27.604Z,73.29
2022-12-06T03:03:35.083Z,73.49
2022-12-06T03:06:03.286Z,73.55
2022-12-06T03:08:46.586Z,73.84
2022-12-06T03:11:15.476Z,73.58
2022-12-06T03:14:07.998Z,73.32
2022-12-06T03:16:49.390Z,73.07
2022-12-06T03:19:23.053Z,73.43
2022-12-06T03:21:58.232Z,73.64
2022-12-06T03:24:29.380Z,73.88
2022-12-06T03:27:00.219Z,73.60
2022-12-06T03:29:31.876Z,74.09
2022-12-06T03:32:03.432Z,74.42
2022-12-06T03:34:38.302Z,74.16
2022-12-06T03:37:10.838Z,73.92
2022-12-06T03:39:48.415Z,74.19
2022-12-06T03:42:18.499Z,74.08
2022-12-06T03:44:47.243Z,73.87
2022-12-06T03:47:24.451Z,73.82
2022-12-06T03:50:04.953Z,74.29
2022-12-06T03:52:34.394Z,74.10
2022-12-06T03:55:02.532Z,74.02
2022-12-06T03:57:30.648Z,74.41
2022-12-06T03:59:59.226Z,74.29
2022-12-06T04:02:27.518Z,74.40
2022-12-06T04:04:55.701Z,74.26
2022-12-06T04:07:23.952Z,74.25
2022-12-06T04:09:52.266Z,74.39
2022-12-06T04:12:20.433Z,74.04
2022-12-06T04:14:48.714Z,73.95
2022-12-06T04:17:16.909Z,74.02
2022-12-06T04:19:49.376Z,74.11
2022-12-06T04:22:20.413Z,73.95
2022-12-06T04:24:48.387Z,73.83
2022-12-06T04:27:16.462Z,73.48
2022-12-06T04:29:44.742Z,73.79
2022-12-06T04:32:13.127Z,74.03
2022-12-06T04:34:41.204Z,74.24
2022-12-06T04:37:10.199Z,74.38
2022-12-06T04:39:38.382Z,74.37
2022-12-06T04:42:06.633Z,74.57
2022-12-06T04:44:34.842Z,74.14
2022-12-06T04:47:03.671Z,74.76
2022-12-06T04:49:32.117Z,74.80
2022-12-06T04:52:00.746Z,74.99
2022-12-06T04:54:29.290Z,75.04
2022-12-06T04:56:58.185Z,74.94
2022-12-06T04:59:27.686Z,75.08
2022-12-06T05:01:57.202Z,75.03
2022-12-06T05:04:25.249Z,74.77
2022-12-06T05:06:53.460Z,74.60
2022-12-06T05:09:21.587Z,74.64
2022-12-06T05:11:49.711Z,75.02
2022-12-06T05:14:17.889Z,74.95
2022-12-06T05:16:46.139Z,74.81
2022-12-06T05:19:14.672Z,74.92
2022-12-06T05:21:42.833Z,74.81
2022-12-06T05:24:11.014Z,74.61
2022-12-06T05:26:39.189Z,74.25
2022-12-06T05:29:07.580Z,74.00
2022-12-06T05:31:35.584Z,74.33
2022-12-06T05:34:03.831Z,74.41
2022-12-06T05:36:32.311Z,74.73
2022-12-06T05:39:00.405Z,74.75
2022-12-06T05:41:28.464Z,74.95
2022-12-06T05:43:56.743Z,75.22
2022-12-06T05:46:25.255Z,75.34
2022-12-06T05:48:53.514Z,75.19
2022-12-06T05:51:21.825Z,75.06
2022-12-06T05:53:50.077Z,75.39
2022-12-06T05:56:18.148Z,75.39
2022-12-06T05:58:46.429Z,75.40
2022-12-06T06:01:14.509Z,75.19
2022-12-06T06:03:47.458Z,74.80
2022-12-06T06:06:17.754Z,74.83
2022-12-06T06:08:45.899Z,75.16
2022-12-06T06:11:13.876Z,74.36
2022-12-06T06:13:42.251Z,74.37
2022-12-06T06:16:10.388Z,74.35
2022-12-06T06:18:38.916Z,74.73
2022-12-06T06:21:07.102Z,74.99
2022-12-06T06:23:35.276Z,74.93
2022-12-06T06:26:08.210Z,75.06
2022-12-06T06:28:36.233Z,75.23
2022-12-06T06:31:08.608Z,75.37
2022-12-06T06:33:36.688Z,75.48
2022-12-06T06:36:05.172Z,75.67
2022-12-06T06:38:33.660Z,75.80
2022-12-06T06:41:03.062Z,75.93
2022-12-06T06:43:31.546Z,76.03
2022-12-06T06:46:06.119Z,76.45
2022-12-06T06:48:37.527Z,76.77
2022-12-06T06:51:09.258Z,76.88
2022-12-06T06:53:38.895Z,76.78
2022-12-06T06:56:07.559Z,77.07
2022-12-06T06:58:36.071Z,77.27
2022-12-06T07:01:06.253Z,77.22
2022-12-06T07:03:35.705Z,77.55
2022-12-06T07:06:08.349Z,77.28
2022-12-06T07:08:37.589Z,77.31
2022-12-06T07:11:06.022Z,77.55
2022-12-06T07:13:34.726Z,77.64
2022-12-06T07:16:08.432Z,77.52
2022-12-06T07:18:36.647Z,77.46
2022-12-06T07:21:07.281Z,77.54
2022-12-06T07:23:36.593Z,77.73
2022-12-06T07:26:12.534Z,77.77
2022-12-06T07:28:43.782Z,77.82
2022-12-06T07:31:12.945Z,77.90
2022-12-06T07:33:41.845Z,77.99
2022-12-06T07:36:13.571Z,77.97
2022-12-06T07:38:44.134Z,78.35
2022-12-06T07:41:13.504Z,78.20
2022-12-06T07:43:41.551Z,78.22
2022-12-06T07:46:13.691Z,78.27
2022-12-06T07:48:41.899Z,78.46
2022-12-06T07:51:10.025Z,78.55
2022-12-06T07:53:38.256Z,78.48
2022-12-06T07:56:07.632Z,78.66
2022-12-06T07:58:35.562Z,78.70
2022-12-06T08:01:04.805Z,78.56
2022-12-06T08:03:33.134Z,78.46
2022-12-06T08:06:01.297Z,78.48
2022-12-06T08:08:30.127Z,78.43
2022-12-06T08:11:02.697Z,78.50
2022-12-06T08:13:31.181Z,78.32
2022-12-06T08:15:59.396Z,78.26
2022-12-06T08:18:27.431Z,78.31
2022-12-06T08:20:59.590Z,78.25
2022-12-06T08:23:34.116Z,78.25
2022-12-06T08:26:06.481Z,78.29
2022-12-06T08:28:36.596Z,78.18
2022-12-06T08:31:09.827Z,78.44
2022-12-06T08:33:38.273Z,78.43
2022-12-06T08:36:15.284Z,78.70
2022-12-06T08:38:43.329Z,78.73
2022-12-06T08:41:12.024Z,78.49
2022-12-06T08:43:40.196Z,78.60
2022-12-06T08:46:08.299Z,78.23
2022-12-06T08:48:41.353Z,78.17
2022-12-06T08:51:11.180Z,78.40
2022-12-06T08:53:39.359Z,77.85
2022-12-06T08:56:07.843Z,77.75
2022-12-06T08:58:36.224Z,77.29
2022-12-06T09:01:16.197Z,77.08
2022-12-06T09:03:44.431Z,77.28
2022-12-06T09:06:12.938Z,76.95
2022-12-06T09:08:41.219Z,76.55
2022-12-06T09:11:09.703Z,76.67
2022-12-06T09:13:38.826Z,76.17
2022-12-06T09:16:12.451Z,75.97
2022-12-06T09:18:40.584Z,76.11
2022-12-06T09:21:11.117Z,75.71
2022-12-06T09:23:39.763Z,75.37
2022-12-06T09:26:08.469Z,75.39
2022-12-06T09:28:38.873Z,75.49
2022-12-06T09:31:09.088Z,75.25
2022-12-06T09:33:37.840Z,74.95
2022-12-06T09:36:23.187Z,74.89
2022-12-06T09:39:00.928Z,74.73
2022-12-06T09:41:50.987Z,74.65
2022-12-06T09:44:31.339Z,74.42
2022-12-06T09:47:05.760Z,74.34
2022-12-06T09:50:04.230Z,74.75
2022-12-06T09:52:41.216Z,74.75
2022-12-06T09:55:56.294Z,74.62
2022-12-06T09:58:39.373Z,74.08
2022-12-06T10:01:28.910Z,73.35
2022-12-06T10:04:19.631Z,72.74
2022-12-06T10:06:57.457Z,71.50
2022-12-06T10:09:50.269Z,69.37
2022-12-06T10:12:30.522Z,67.19
2022-12-06T10:15:07.706Z,65.41
2022-12-06T10:17:54.469Z,62.90
2022-12-06T10:20:31.924Z,59.89
2022-12-06T10:23:18.708Z,56.38
2022-12-06T10:25:58.665Z,54.47
2022-12-06T10:28:45.043Z,52.38
2022-12-06T10:31:22.379Z,47.21
2022-12-06T10:33:52.961Z,44.67
2022-12-06T10:36:41.093Z,43.71
2022-12-06T10:39:21.556Z,41.90
2022-12-06T10:42:13.272Z,39.07
2022-12-06T10:44:48.512Z,38.16
2022-12-06T10:47:23.947Z,37.43
2022-12-06T10:49:54.585Z,37.29
2022-12-06T10:52:42.793Z,37.23
2022-12-06T10:55:10.698Z,37.16
2022-12-06T10:57:49.411Z,36.39
2022-12-06T11:00:25.632Z,35.59
2022-12-06T11:03:31.608Z,36.54
2022-12-06T11:06:07.931Z,37.82
2022-12-06T11:08:58.708Z,38.12
2022-12-06T11:11:33.294Z,38.15
2022-12-06T11:14:07.211Z,37.58
2022-12-06T11:16:44.675Z,38.31
2022-12-06T11:19:43.878Z,39.62
2022-12-06T11:22:45.829Z,41.58
2022-12-06T11:25:31.822Z,42.33
2022-12-06T11:28:09.306Z,42.80
2022-12-06T11:30:38.403Z,43.00
2022-12-06T11:33:06.582Z,43.62
2022-12-06T11:35:34.657Z,44.40
2022-12-06T11:38:07.293Z,44.75
2022-12-06T11:40:43.971Z,45.96
2022-12-06T11:43:24.315Z,47.19
2022-12-06T11:45:55.613Z,48.27
2022-12-06T11:48:25.660Z,48.70
2022-12-06T11:50:54.324Z,49.17
2022-12-06T11:53:35.698Z,49.58
2022-12-06T11:56:24.356Z,49.47
2022-12-06T11:59:26.092Z,48.94
2022-12-06T12:01:57.206Z,48.96
2022-12-06T12:04:31.262Z,49.07
2022-12-06T12:06:59.325Z,49.16
2022-12-06T12:09:31.432Z,49.80
2022-12-06T12:12:15.126Z,50.25
2022-12-06T12:14:49.612Z,51.18
2022-12-06T12:17:22.744Z,52.38
2022-12-06T12:19:57.084Z,53.12
2022-12-06T12:22:27.798Z,53.72
2022-12-06T12:25:22.929Z,54.45
2022-12-06T12:28:01.915Z,54.61
2022-12-06T12:30:40.640Z,55.56
2022-12-06T12:33:08.507Z,56.17
2022-12-06T12:35:38.340Z,57.33
2022-12-06T12:38:28.910Z,57.41
2022-12-06T12:41:03.623Z,57.63
2022-12-06T12:43:34.168Z,58.13
2022-12-06T12:46:11.370Z,58.68
2022-12-06T12:48:42.732Z,58.82
2022-12-06T12:51:24.900Z,59.35
2022-12-06T12:54:18.282Z,59.63
2022-12-06T12:56:46.329Z,59.73
2022-12-06T12:59:20.236Z,60.15
2022-12-06T13:01:56.715Z,60.28
2022-12-06T13:04:45.856Z,60.62
2022-12-06T13:07:27.957Z,61.05
2022-12-06T13:10:09.380Z,61.19
2022-12-06T13:12:46.540Z,61.15
2022-12-06T13:15:16.539Z,61.40
2022-12-06T13:17:57.918Z,61.54
2022-12-06T13:20:34.515Z,61.62
2022-12-06T13:23:12.621Z,61.93
2022-12-06T13:25:43.234Z,61.91
2022-12-06T13:28:19.486Z,62.40
2022-12-06T13:30:53.942Z,62.93
2022-12-06T13:33:25.984Z,62.97
2022-12-06T13:36:00.497Z,63.48
2022-12-06T13:38:34.832Z,64.61
2022-12-06T13:41:11.596Z,64.36
2022-12-06T13:43:41.202Z,64.73
2022-12-06T13:46:09.482Z,64.98
2022-12-06T13:48:49.021Z,64.66
2022-12-06T13:51:32.244Z,64.57
2022-12-06T13:54:06.058Z,64.65
2022-12-06T13:56:34.159Z,64.66
2022-12-06T13:59:11.620Z,64.60
2022-12-06T14:01:40.642Z,64.68
2022-12-06T14:04:24.449Z,64.43
2022-12-06T14:06:55.303Z,64.21
2022-12-06T14:09:25.592Z,64.27
2022-12-06T14:11:53.543Z,64.33
2022-12-06T14:14:25.757Z,64.46
2022-12-06T14:17:03.942Z,64.59
2022-12-06T14:19:46.649Z,64.67
2022-12-06T14:22:25.117Z,64.95
2022-12-06T14:25:19.270Z,65.54
2022-12-06T14:27:50.529Z,66.19
2022-12-06T14:30:26.197Z,67.06
2022-12-06T14:32:57.207Z,66.78
2022-12-06T14:35:34.536Z,66.87
2022-12-06T14:38:18.010Z,67.06
2022-12-06T14:40:47.455Z,67.32
2022-12-06T14:43:19.386Z,68.03
2022-12-06T14:45:48.422Z,68.69
2022-12-06T14:48:17.238Z,68.49
2022-12-06T14:50:50.823Z,68.78
2022-12-06T14:53:36.213Z,69.98
2022-12-06T14:56:24.583Z,70.35
2022-12-06T14:58:53.177Z,69.78
2022-12-06T15:01:25.955Z,69.76
2022-12-06T15:04:27.627Z,70.73
2022-12-06T15:06:57.207Z,70.36
2022-12-06T15:09:25.546Z,70.59
2022-12-06T15:12:28.460Z,70.80
2022-12-06T15:14:57.118Z,71.50
2022-12-06T15:17:25.645Z,72.29
2022-12-06T15:19:54.759Z,71.74
2022-12-06T15:22:25.985Z,71.72
2022-12-06T15:24:58.142Z,72.08
2022-12-06T15:27:26.605Z,72.16
2022-12-06T15:29:55.020Z,72.17
2022-12-06T15:32:25.490Z,72.33
2022-12-06T15:34:53.630Z,72.22
2022-12-06T15:37:39.302Z,72.66
2022-12-06T15:40:08.917Z,72.08
2022-12-06T15:42:36.992Z,71.95
2022-12-06T15:45:05.893Z,71.78
2022-12-06T15:47:34.543Z,71.85
2022-12-06T15:50:02.550Z,71.88
2022-12-06T15:52:30.832Z,72.11
2022-12-06T15:54:59.518Z,72.04
2022-12-06T15:57:27.698Z,72.00
2022-12-06T15:59:56.083Z,72.21
2022-12-06T16:02:24.732Z,72.33
2022-12-06T16:04:53.573Z,72.35
2022-12-06T16:07:21.847Z,72.44
2022-12-06T16:09:50.339Z,72.44
2022-12-06T16:12:18.513Z,72.65
2022-12-06T16:14:46.794Z,72.66
2022-12-06T16:17:15.071Z,72.71
2022-12-06T16:19:43.256Z,72.47
2022-12-06T16:22:11.301Z,72.64
2022-12-06T16:24:39.403Z,72.76
2022-12-06T16:27:09.202Z,72.88
2022-12-06T16:29:37.616Z,72.92
2022-12-06T16:32:06.268Z,73.07
2022-12-06T16:34:35.098Z,73.21
2022-12-06T16:37:06.349Z,73.35
2022-12-06T16:39:35.231Z,73.40
2022-12-06T16:42:04.753Z,73.53
2022-12-06T16:44:34.345Z,73.58
2022-12-06T16:47:06.677Z,73.54
2022-12-06T16:49:48.851Z,73.57
2022-12-06T16:52:17.731Z,73.62
2022-12-06T16:54:46.028Z,73.76
2022-12-06T16:57:15.192Z,73.85
2022-12-06T16:59:43.462Z,73.90
2022-12-06T17:02:30.282Z,73.97
2022-12-06T17:05:02.455Z,73.97
2022-12-06T17:07:31.224Z,74.13
2022-12-06T17:10:00.475Z,74.24
2022-12-06T17:12:28.543Z,74.32
2022-12-06T17:14:57.276Z,74.43
2022-12-06T17:17:25.385Z,74.53
2022-12-06T17:19:54.230Z,74.63
2022-12-06T17:22:22.874Z,74.65
2022-12-06T17:24:50.943Z,74.69
2022-12-06T17:27:19.140Z,74.78
2022-12-06T17:29:47.351Z,74.98
2022-12-06T17:32:15.479Z,75.29
2022-12-06T17:34:43.757Z,75.56
2022-12-06T17:37:12.451Z,75.69
2022-12-06T17:39:40.533Z,75.81
2022-12-06T17:42:10.929Z,76.05
2022-12-06T17:44:39.130Z,76.22
2022-12-06T17:47:07.722Z,76.28
2022-12-06T17:49:35.847Z,76.53
2022-12-06T17:52:04.834Z,76.57
2022-12-06T17:54:32.955Z,76.61
2022-12-06T17:57:01.049Z,76.66
2022-12-06T17:59:32.175Z,76.75
2022-12-06T18:02:17.683Z,76.81
2022-12-06T18:04:48.206Z,76.94
2022-12-06T18:07:17.717Z,76.99
2022-12-06T18:09:45.892Z,77.12
2022-12-06T18:12:15.799Z,77.18
2022-12-06T18:14:44.991Z,77.15
2022-12-06T18:17:13.181Z,77.26
2022-12-06T18:19:41.715Z,77.29
2022-12-06T18:22:09.743Z,77.40
2022-12-06T18:24:37.819Z,77.41
2022-12-06T18:27:07.507Z,77.46
2022-12-06T18:29:35.543Z,77.58
2022-12-06T18:32:04.149Z,77.62
2022-12-06T18:34:32.423Z,77.64
2022-12-06T18:37:00.456Z,77.73
2022-12-06T18:39:28.528Z,77.74
2022-12-06T18:41:57.232Z,77.78
2022-12-06T18:44:25.907Z,77.79
2022-12-06T18:47:00.133Z,77.80
2022-12-06T18:49:29.015Z,77.82
2022-12-06T18:51:57.411Z,77.89
2022-12-06T18:54:25.459Z,77.68
2022-12-06T18:56:53.554Z,77.60
2022-12-06T18:59:27.329Z,77.49
2022-12-06T19:01:56.081Z,77.45
2022-12-06T19:04:24.634Z,77.47
2022-12-06T19:06:52.816Z,77.58
2022-12-06T19:09:21.299Z,77.78
2022-12-06T19:11:49.581Z,77.93
2022-12-06T19:14:17.762Z,78.22
2022-12-06T19:16:48.264Z,78.19
2022-12-06T19:19:29.211Z,78.16
2022-12-06T19:21:59.497Z,78.12
2022-12-06T19:24:28.999Z,78.26
2022-12-06T19:26:57.583Z,78.24
2022-12-06T19:29:27.396Z,78.22
2022-12-06T19:31:55.369Z,78.28
2022-12-06T19:34:26.514Z,78.17
2022-12-06T19:36:55.111Z,78.18
2022-12-06T19:39:23.922Z,78.17
2022-12-06T19:41:52.624Z,78.15
2022-12-06T19:44:20.767Z,78.15
2022-12-06T19:46:48.992Z,78.19
2022-12-06T19:49:18.884Z,78.24
2022-12-06T19:51:48.019Z,78.27
2022-12-06T19:54:19.480Z,78.41
2022-12-06T19:56:49.231Z,78.40
2022-12-06T19:59:17.309Z,78.44
2022-12-06T20:01:48.053Z,78.51
2022-12-06T20:04:18.859Z,78.49
2022-12-06T20:06:47.475Z,78.48
2022-12-06T20:09:18.176Z,78.44
2022-12-06T20:11:47.022Z,78.40
2022-12-06T20:14:17.586Z,78.39
2022-12-06T20:16:46.017Z,78.40
2022-12-06T20:19:15.317Z,78.44
2022-12-06T20:21:44.219Z,78.44
2022-12-06T20:24:16.445Z,78.52
2022-12-06T20:26:45.584Z,78.59
2022-12-06T20:29:13.558Z,78.86
2022-12-06T20:31:41.710Z,78.79
2022-12-06T20:34:14.977Z,78.66
2022-12-06T20:36:43.833Z,78.81
2022-12-06T20:39:30.748Z,78.90
2022-12-06T20:41:59.215Z,78.91
2022-12-06T20:44:27.361Z,79.01
2022-12-06T20:46:55.550Z,78.93
2022-12-06T20:49:23.751Z,78.85
2022-12-06T20:51:53.611Z,78.83
2022-12-06T20:54:22.461Z,78.84
2022-12-06T20:56:50.846Z,78.90
2022-12-06T20:59:19.125Z,78.89
2022-12-06T21:01:47.823Z,78.96
2022-12-06T21:04:16.606Z,78.99
